Arcola, TX

12:27 PM CDT on September 16, 2014 (GMT -0500)
Sterling Lakes | Change Station
CLOSE
Current Station
Personal Weather Station
Location: Rosharon, TX
Elevation: 69 ft
Nearby Weather Stations

Elev 69 ft 29.44 °N, 95.44 °W | Updated 5 seconds ago

Mostly Cloudy
Mostly Cloudy
92.7 °F
Feels Like 103 °F
N
3.8
Wind Variable Wind from NNE
Gusts 6.9 mph

Today
High -- | Low -- °F
--% Chance of Precip.
Yesterday
High -- | Low -- °F
Precip. -- in
7:07 AM 7:25 PM
Last Quarter, 44% visible
Pressure 30.04 in
Visibility 10.0 miles
Clouds Scattered Clouds 3200 ft
Scattered Clouds 4300 ft
Mostly Cloudy 8000 ft
Heat Index 103 °F
Dew Point 74 °F
Humidity 55%
Rainfall 0.00 in
Snow Depth Not available.
UV 5 out of 12
Pollen 8.70 out of 12
Ozone Good
PM2.5 Moderate
Flu Activity Not available.
METAR KAXH 161715Z AUTO 04006KT 10SM SCT032 SCT043 BKN080 30/24 A3004 RMK AO2 LTG DSNT E T02960240

More Conditions Fewer Conditions

Pressure 30.04 in
Visibility 10.0 miles
Clouds Scattered Clouds 3200 ft
Scattered Clouds 4300 ft
Mostly Cloudy 8000 ft
Heat Index 103 °F
Dew Point 74 °F
Humidity 55%
Rainfall 0.00 in
Snow Depth Not available.
UV 5 out of 12
Pollen 8.70 out of 12
Ozone Good
PM2.5 Moderate
Flu Activity Not available.
METAR KAXH 161715Z AUTO 04006KT 10SM SCT032 SCT043 BKN080 30/24 A3004 RMK AO2 LTG DSNT E T02960240

More Conditions Fewer Conditions

10-Day Weather Forecast

Almanac

Astronomy

Sep. 16, 2014 Rise Set
Actual Time 7:07 AM CDT 7:25 PM CDT
Civil Twilight 6:43 AM CDT 7:49 PM CDT
Nautical Twilight 6:15 AM CDT 8:17 PM CDT
Astronomical Twilight 5:47 AM CDT 8:45 PM CDT
Moon 12:36 AM CDT 2:30 PM CDT
Length of Visible Light 13h 06m
Length of Day
12h 18m
Tomorrow will be 1m 45s shorter.
Last Quarter, 44% of the Moon is Illuminated
Today
Last Quarter
Sep 24
New
Oct 1
First Quarter
Oct 8
Full
Oct 15
Last Quarter

Today's Extremes

State Highs State Lows

Community

WunderPhotos

Upload Photos

1,753,838 photos uploaded!

Nearby

Air Quality

  Air Quality AQ Index Pollutant
Yesterday Moderate
PM2.5
Yesterday Good
OZONE
Current Moderate
PM2.5
Current Good
OZONE
Tuesday Good
OZONE
Tuesday Good
PM10
Wednesday Good
OZONE
Wednesday Good
PM10
Thursday Good
OZONE
Thursday Good
PM10
Friday Good
OZONE
Friday Good
PM10

Snow Depth

Station Depth Elevation
No new snow has been reported.

Earthquake Activity

City Distance Mag. Time & Date
No recent earthquake activity has been reported nearby.
Minimum magnitude displayed is 2.5.

Coastal Water Temperatures

Place Temperature
Eagle Point, TX 82.0 °F
USCG Freeport, TX 82.9 °F
Galveston Pier TX 82.9 °F
Galveston Bay (North Jetty), TX 82.9 °F
Rollover Pass, TX 81.0 °F

Nearby Weather Stations